Time;durP1;ratioP1;P1;durP2;ratioP2;P2;SDS_P1;SDS_P2;PMS_P1;PMS_P2;Temp;Humidity;BMP_temperature;BMP_pressure;BME280_temperature;BME280_humidity;BME280_pressure;Samples;Min_cycle;Max_cycle;Signal;HPM_P1;HPM_P2
2022/08/16 00:00:56;;;;;;;24.88;17.55;;;;;;;22.72;81.45;100130.69;5085911;28;20109;-79
2022/08/16 00:03:23;;;;;;;25.48;18.17;;;;;;;22.90;80.26;100122.44;5086850;28;20048;-78
2022/08/16 00:05:49;;;;;;;28.10;18.40;;;;;;;22.42;81.77;100134.91;5086156;28;20055;-78
2022/08/16 00:08:16;;;;;;;29.45;18.92;;;;;;;22.11;83.57;100137.44;5075637;28;20090;-78
2022/08/16 00:10:42;;;;;;;25.60;18.70;;;;;;;22.25;83.15;100134.09;5066418;28;20396;-78
2022/08/16 00:13:10;;;;;;;30.17;19.35;;;;;;;21.75;85.61;100138.75;5065765;28;20048;-78
2022/08/16 00:15:41;;;;;;;38.25;19.75;;;;;;;21.49;87.36;100130.03;5092136;28;20039;-78
2022/08/16 00:18:09;;;;;;;25.73;18.38;;;;;;;21.39;87.35;100132.84;5106832;27;20047;-78
2022/08/16 00:20:37;;;;;;;26.85;17.77;;;;;;;21.45;87.00;100131.34;5104280;28;20048;-79
2022/08/16 00:23:04;;;;;;;23.92;18.45;;;;;;;21.23;88.08;100128.31;5085988;27;20090;-78
2022/08/16 00:25:31;;;;;;;28.63;19.17;;;;;;;21.11;88.91;100124.25;5083620;28;20048;-78
2022/08/16 00:27:57;;;;;;;28.67;18.13;;;;;;;20.72;91.14;100131.91;5086403;28;20048;-78
2022/08/16 00:30:25;;;;;;;28.95;19.40;;;;;;;20.50;93.40;100139.59;5083751;28;20048;-78
2022/08/16 00:32:56;;;;;;;30.45;19.25;;;;;;;20.74;92.19;100139.72;5086220;27;20040;-78
2022/08/16 00:35:25;;;;;;;33.05;21.33;;;;;;;20.56;93.27;100141.59;5086331;27;20047;-78
2022/08/16 00:37:54;;;;;;;28.83;19.85;;;;;;;21.06;90.59;100133.72;5086156;27;20048;-78
2022/08/16 00:40:25;;;;;;;28.33;19.73;;;;;;;20.99;90.25;100127.34;5083957;28;20093;-78
2022/08/16 00:42:52;;;;;;;29.95;19.77;;;;;;;21.02;90.18;100133.19;5086150;27;20489;-78
2022/08/16 00:45:27;;;;;;;33.30;20.25;;;;;;;21.17;88.48;100122.78;5086452;27;20048;-78
2022/08/16 00:47:55;;;;;;;30.83;21.60;;;;;;;20.86;90.56;100138.44;5085716;27;20530;-78
2022/08/16 00:50:26;;;;;;;30.42;21.20;;;;;;;20.80;90.40;100144.44;5085075;27;20113;-78
2022/08/16 00:52:52;;;;;;;37.30;20.60;;;;;;;21.09;88.87;100150.22;5088350;27;20480;-78
2022/08/16 00:55:22;;;;;;;36.78;21.77;;;;;;;20.92;89.97;100148.47;5076537;28;20060;-78
2022/08/16 00:57:50;;;;;;;32.50;21.42;;;;;;;20.86;89.96;100149.94;5085326;27;20040;-78
2022/08/16 01:00:18;;;;;;;37.08;21.60;;;;;;;20.84;90.04;100149.25;5084537;28;20051;-78
2022/08/16 01:02:45;;;;;;;34.28;22.02;;;;;;;20.61;92.07;100163.28;5086210;28;20496;-78
2022/08/16 01:05:13;;;;;;;34.53;23.17;;;;;;;20.43;93.36;100166.00;5085330;28;20051;-78
2022/08/16 01:07:43;;;;;;;37.20;24.38;;;;;;;20.16;95.51;100158.97;5084003;27;20047;-78
2022/08/16 01:10:10;;;;;;;37.40;23.38;;;;;;;20.07;95.59;100159.88;5084980;27;20442;-78
2022/08/16 01:12:37;;;;;;;35.45;22.42;;;;;;;20.28;94.37;100162.25;5085185;28;20052;-78
2022/08/16 01:15:04;;;;;;;42.72;24.15;;;;;;;20.36;93.95;100159.66;5085209;28;20093;-78
2022/08/16 01:17:33;;;;;;;39.17;23.10;;;;;;;20.43;93.94;100167.84;5085413;28;20488;-78
2022/08/16 01:20:05;;;;;;;43.28;24.83;;;;;;;20.25;94.40;100159.88;5084455;28;20051;-77
2022/08/16 01:22:42;;;;;;;41.65;25.45;;;;;;;20.15;94.48;100162.59;5084903;27;20052;-77
2022/08/16 01:25:13;;;;;;;41.38;25.52;;;;;;;19.99;97.18;100154.50;5064746;28;20044;-77
2022/08/16 01:27:45;;;;;;;35.75;23.83;;;;;;;20.37;93.57;100158.63;5077553;27;20448;-77
2022/08/16 01:30:15;;;;;;;39.35;25.30;;;;;;;20.34;93.73;100154.47;5084113;27;20036;-78
2022/08/16 01:32:42;;;;;;;40.85;24.63;;;;;;;20.35;93.43;100148.16;5085012;27;20048;-78
2022/08/16 01:35:14;;;;;;;38.85;23.45;;;;;;;20.45;92.50;100156.03;5083230;27;20047;-78
2022/08/16 01:37:50;;;;;;;42.00;25.55;;;;;;;20.21;93.05;100153.97;5084789;27;20547;-77
2022/08/16 01:40:21;;;;;;;40.70;24.80;;;;;;;20.05;94.44;100159.19;5082535;28;20492;-77
2022/08/16 01:42:49;;;;;;;41.47;25.52;;;;;;;20.53;91.46;100166.75;5084245;28;20044;-77
2022/08/16 01:45:17;;;;;;;46.00;24.63;;;;;;;20.81;89.53;100168.22;5085707;28;20079;-77
2022/08/16 01:47:45;;;;;;;39.83;25.20;;;;;;;20.78;88.36;100173.03;5083620;28;20408;-77
2022/08/16 01:50:12;;;;;;;35.38;22.77;;;;;;;20.77;88.46;100171.34;5083986;27;20048;-77
2022/08/16 01:52:41;;;;;;;37.83;23.83;;;;;;;21.08;86.52;100169.88;5089851;27;20061;-77
2022/08/16 01:55:08;;;;;;;38.10;22.95;;;;;;;21.25;85.11;100170.78;5083930;28;20044;-77
2022/08/16 01:57:36;;;;;;;36.70;22.90;;;;;;;21.30;84.41;100171.16;5083877;28;20048;-77
2022/08/16 02:00:05;;;;;;;33.58;21.25;;;;;;;21.02;84.58;100172.34;5085397;28;20101;-77
2022/08/16 02:02:32;;;;;;;33.00;23.00;;;;;;;21.14;83.85;100169.25;5081552;28;20044;-77
2022/08/16 02:04:59;;;;;;;34.83;22.13;;;;;;;21.40;83.71;100184.34;5085313;28;20105;-77
2022/08/16 02:07:26;;;;;;;37.67;21.38;;;;;;;21.65;81.77;100176.25;5083478;28;20131;-77
2022/08/16 02:09:52;;;;;;;32.45;22.52;;;;;;;21.83;80.54;100176.13;5087384;28;20052;-78
2022/08/16 02:12:19;;;;;;;34.55;22.10;;;;;;;21.72;80.20;100182.59;5088236;27;20044;-77
2022/08/16 02:14:47;;;;;;;36.78;22.70;;;;;;;21.79;79.79;100180.94;5088622;27;20047;-77
2022/08/16 02:17:13;;;;;;;34.42;20.95;;;;;;;21.72;79.80;100179.94;5089635;27;20051;-78
2022/08/16 02:19:42;;;;;;;30.42;20.30;;;;;;;21.84;78.92;100180.44;5087305;27;20089;-77
2022/08/16 02:22:12;;;;;;;31.02;21.48;;;;;;;21.79;78.66;100188.13;5091664;27;20044;-78
2022/08/16 02:24:40;;;;;;;27.35;19.08;;;;;;;21.75;78.27;100173.44;5089531;28;20106;-77
2022/08/16 02:27:07;;;;;;;31.58;20.30;;;;;;;21.56;79.11;100171.91;5087407;28;20522;-77
2022/08/16 02:29:33;;;;;;;26.75;18.85;;;;;;;21.48;79.15;100176.34;5086611;28;20054;-77
2022/08/16 02:32:01;;;;;;;35.17;21.23;;;;;;;21.24;80.71;100180.63;5088861;27;20055;-78
2022/08/16 02:34:27;;;;;;;41.42;23.77;;;;;;;21.63;78.43;100182.75;5087795;27;20048;-79
2022/08/16 02:36:54;;;;;;;34.25;23.00;;;;;;;21.77;78.35;100171.41;5087325;27;20411;-77
2022/08/16 02:39:20;;;;;;;34.92;23.33;;;;;;;21.65;79.47;100173.59;5067430;28;20048;-77
2022/08/16 02:41:49;;;;;;;42.35;24.77;;;;;;;21.42;81.03;100174.34;5079416;28;20056;-77
2022/08/16 02:44:16;;;;;;;49.15;25.42;;;;;;;21.15;82.38;100178.91;5087452;28;20426;-77
2022/08/16 02:46:44;;;;;;;35.40;21.42;;;;;;;20.81;83.39;100178.88;5089449;28;20044;-77
2022/08/16 02:49:12;;;;;;;28.77;18.83;;;;;;;20.18;85.99;100180.91;5087054;28;20452;-77
2022/08/16 02:51:39;;;;;;;35.78;22.80;;;;;;;20.22;86.86;100176.97;5089297;27;20491;-77
2022/08/16 02:54:07;;;;;;;39.50;22.58;;;;;;;20.31;86.31;100172.56;5072379;27;20040;-77
2022/08/16 02:56:34;;;;;;;59.58;24.30;;;;;;;20.31;86.23;100169.91;5079718;28;20435;-77
2022/08/16 02:59:01;;;;;;;48.03;21.80;;;;;;;20.51;84.45;100175.88;5085044;28;20059;-77
2022/08/16 03:01:30;;;;;;;38.70;24.23;;;;;;;20.31;84.74;100183.22;5087042;28;20548;-77
2022/08/16 03:03:58;;;;;;;48.47;27.63;;;;;;;20.12;87.46;100173.56;5081920;28;20065;-77
2022/08/16 03:06:28;;;;;;;36.92;23.20;;;;;;;19.90;87.54;100179.34;5084360;28;20043;-77
2022/08/16 03:08:54;;;;;;;40.78;25.25;;;;;;;19.70;90.25;100185.78;5068741;28;20562;-77
2022/08/16 03:11:22;;;;;;;40.88;25.73;;;;;;;20.05;89.40;100184.97;5074743;28;20093;-78
2022/08/16 03:13:54;;;;;;;42.63;24.35;;;;;;;20.46;87.15;100187.00;5066741;28;20048;-77
2022/08/16 03:16:21;;;;;;;38.10;23.88;;;;;;;20.76;84.74;100183.88;5066239;28;20040;-77
2022/08/16 03:18:47;;;;;;;36.20;22.10;;;;;;;20.86;83.17;100191.75;5065760;28;20102;-77
2022/08/16 03:21:14;;;;;;;34.38;21.17;;;;;;;20.71;82.72;100194.16;5065761;28;20094;-78
2022/08/16 03:23:42;;;;;;;36.25;22.33;;;;;;;20.93;82.05;100189.28;5064789;28;20044;-78
2022/08/16 03:26:09;;;;;;;37.15;22.65;;;;;;;21.16;80.48;100188.59;5078870;28;20052;-77
2022/08/16 03:28:35;;;;;;;38.17;23.50;;;;;;;21.24;79.79;100185.97;5079692;27;20407;-78
2022/08/16 03:31:02;;;;;;;208.25;28.17;;;;;;;21.08;80.16;100183.19;5084728;28;20492;-78
2022/08/16 03:33:28;;;;;;;35.55;22.38;;;;;;;20.65;82.22;100188.63;5087518;28;20095;-78
2022/08/16 03:35:58;;;;;;;36.95;22.23;;;;;;;20.52;83.37;100183.72;5086065;28;20052;-78
2022/08/16 03:38:25;;;;;;;37.17;22.98;;;;;;;20.85;82.15;100188.25;5073432;28;20489;-78
2022/08/16 03:40:55;;;;;;;36.40;23.08;;;;;;;20.91;81.04;100180.63;5066273;28;20075;-78
2022/08/16 03:43:22;;;;;;;40.38;23.08;;;;;;;20.92;80.06;100174.28;5068077;28;20036;-78
2022/08/16 03:45:51;;;;;;;35.85;22.80;;;;;;;20.76;81.02;100183.03;5081025;27;20048;-78
2022/08/16 03:48:17;;;;;;;34.72;21.00;;;;;;;20.50;81.83;100183.03;5084367;27;20040;-78
2022/08/16 03:50:44;;;;;;;36.08;22.60;;;;;;;20.44;82.74;100185.47;5084529;27;20557;-78
2022/08/16 03:53:10;;;;;;;28.52;18.67;;;;;;;20.44;82.67;100183.63;5089635;27;20044;-78
2022/08/16 03:55:36;;;;;;;34.55;20.55;;;;;;;20.50;82.03;100184.88;5085015;28;20067;-78
2022/08/16 03:58:04;;;;;;;172.13;23.05;;;;;;;20.26;83.16;100178.31;5086723;28;20041;-78
2022/08/16 04:00:31;;;;;;;31.48;18.65;;;;;;;19.86;83.01;100189.47;5048750;28;1042866;-78
2022/08/16 04:03:01;;;;;;;51.05;25.45;;;;;;;19.79;85.74;100182.25;5078179;28;20051;-78
2022/08/16 04:05:28;;;;;;;60.88;24.92;;;;;;;19.99;84.86;100182.94;5086882;28;20566;-78
2022/08/16 04:07:54;;;;;;;43.47;24.83;;;;;;;20.03;85.64;100185.09;5086603;27;20039;-78
2022/08/16 04:10:21;;;;;;;43.35;25.30;;;;;;;19.90;86.71;100187.34;5084285;28;20093;-78
2022/08/16 04:12:47;;;;;;;50.80;26.02;;;;;;;19.80;87.56;100189.25;5069456;28;20048;-77
2022/08/16 04:15:16;;;;;;;41.88;25.73;;;;;;;19.44;89.34;100189.19;5087258;28;20036;-77
2022/08/16 04:17:43;;;;;;;72.05;27.58;;;;;;;19.55;88.82;100188.13;5085824;28;20047;-77
2022/08/16 04:20:12;;;;;;;43.10;24.02;;;;;;;19.72;nan;100189.16;5085742;28;20552;-78
2022/08/16 04:22:39;;;;;;;43.90;26.50;;;;;;;19.54;90.09;100193.63;5079586;28;20044;-79
2022/08/16 04:25:06;;;;;;;49.85;28.10;;;;;;;19.38;92.80;100197.72;5074519;28;20098;-78
2022/08/16 04:27:33;;;;;;;48.95;28.25;;;;;;;19.50;92.76;100189.56;5077887;28;20117;-78
2022/08/16 04:30:00;;;;;;;52.45;29.33;;;;;;;19.60;93.08;100195.66;5084171;28;20048;-78
2022/08/16 04:32:28;;;;;;;48.97;28.42;;;;;;;19.65;92.29;100196.91;5085503;28;20044;-78
2022/08/16 04:34:54;;;;;;;56.63;29.27;;;;;;;19.97;91.25;100195.53;5086460;28;20101;-79
2022/08/16 04:37:21;;;;;;;45.70;26.83;;;;;;;20.38;88.26;100203.75;5086535;27;20044;-79
2022/08/16 04:39:47;;;;;;;45.35;26.35;;;;;;;20.86;85.58;100208.56;5083302;28;20127;-79
2022/08/16 04:42:14;;;;;;;46.70;24.95;;;;;;;21.12;84.31;100208.56;5085620;28;20040;-79
2022/08/16 04:44:42;;;;;;;38.08;22.63;;;;;;;21.33;82.98;100211.66;5085722;28;20059;-79
2022/08/16 04:47:09;;;;;;;42.58;25.65;;;;;;;21.33;82.30;100217.00;5084260;28;20135;-79
2022/08/16 04:49:37;;;;;;;37.10;24.02;;;;;;;20.95;83.77;100214.78;5085193;28;20119;-79
2022/08/16 04:52:04;;;;;;;42.90;24.92;;;;;;;20.49;86.72;100221.31;5085088;28;20044;-79
2022/08/16 04:54:30;;;;;;;42.72;25.27;;;;;;;20.50;87.74;100224.81;5084363;27;20050;-79
2022/08/16 04:56:56;;;;;;;41.83;26.00;;;;;;;20.01;90.56;100234.16;5101941;27;20467;-79
2022/08/16 04:59:23;;;;;;;47.05;26.55;;;;;;;19.95;92.31;100237.44;5092808;27;20109;-80
2022/08/16 05:01:55;;;;;;;43.83;26.10;;;;;;;19.77;93.50;100234.78;5084844;28;20052;-79
2022/08/16 05:04:21;;;;;;;40.63;24.33;;;;;;;19.73;93.41;100228.88;5085832;28;20097;-80
2022/08/16 05:06:49;;;;;;;38.92;23.95;;;;;;;20.02;92.22;100231.38;5085973;28;20048;-79
2022/08/16 05:09:17;;;;;;;36.90;23.42;;;;;;;20.18;91.40;100228.84;5083574;28;20552;-79
2022/08/16 05:11:44;;;;;;;33.35;21.75;;;;;;;20.42;89.74;100228.25;5084282;28;20440;-79
2022/08/16 05:14:10;;;;;;;31.60;21.20;;;;;;;20.07;91.50;100226.41;5085591;27;20089;-80
2022/08/16 05:16:38;;;;;;;31.40;22.13;;;;;;;20.51;90.60;100234.47;5083976;27;20047;-79
2022/08/16 05:19:05;;;;;;;34.40;22.25;;;;;;;20.55;89.03;100234.00;5083591;27;20109;-79
2022/08/16 05:21:33;;;;;;;28.20;19.70;;;;;;;20.36;90.33;100240.34;5085840;27;20415;-79
2022/08/16 05:24:01;;;;;;;30.88;20.65;;;;;;;21.15;86.82;100234.06;5084793;27;20135;-79
2022/08/16 05:26:30;;;;;;;29.05;20.75;;;;;;;21.47;84.59;100236.06;5086583;28;20044;-79
2022/08/16 05:28:57;;;;;;;32.10;19.27;;;;;;;21.39;85.50;100244.03;5085692;28;20097;-79
2022/08/16 05:31:25;;;;;;;28.35;18.85;;;;;;;21.88;82.30;100245.84;5083739;28;20044;-79
2022/08/16 05:33:52;;;;;;;28.13;18.38;;;;;;;22.02;81.21;100239.91;5084581;28;20097;-79
2022/08/16 05:36:18;;;;;;;26.48;17.35;;;;;;;21.86;81.61;100242.50;5086145;28;20105;-78
2022/08/16 05:38:45;;;;;;;26.63;16.95;;;;;;;22.01;80.89;100248.91;5083778;27;20063;-78
2022/08/16 05:41:13;;;;;;;22.42;17.15;;;;;;;21.61;83.03;100246.13;5083655;28;20130;-77
2022/08/16 05:43:40;;;;;;;26.23;16.08;;;;;;;21.49;83.91;100247.41;5086254;28;20051;-77
2022/08/16 05:46:06;;;;;;;22.10;16.85;;;;;;;21.71;82.98;100254.81;5084023;28;20070;-77
2022/08/16 05:48:33;;;;;;;24.60;17.05;;;;;;;21.60;84.61;100265.78;5085376;28;20044;-77
2022/08/16 05:50:59;;;;;;;21.67;16.20;;;;;;;21.84;83.56;100271.19;5083491;28;20048;-77
2022/08/16 05:53:25;;;;;;;19.40;15.35;;;;;;;22.00;81.12;100270.41;5072111;28;20470;-77
2022/08/16 05:55:52;;;;;;;22.05;15.45;;;;;;;21.76;82.96;100268.50;5070330;28;20051;-77
2022/08/16 05:58:20;;;;;;;23.40;15.77;;;;;;;22.35;82.42;100275.50;5096598;28;20048;-77
2022/08/16 06:00:46;;;;;;;18.67;14.98;;;;;;;23.30;77.96;100290.78;5083749;28;20573;-77
2022/08/16 06:03:12;;;;;;;22.15;15.18;;;;;;;23.11;78.21;100293.84;5084820;28;20051;-77
2022/08/16 06:05:39;;;;;;;20.92;14.50;;;;;;;22.58;78.98;100289.03;5085313;28;20040;-76
2022/08/16 06:08:05;;;;;;;23.75;15.30;;;;;;;22.86;79.79;100285.03;5087206;28;20052;-76
2022/08/16 06:10:32;;;;;;;18.65;14.93;;;;;;;23.40;77.50;100296.75;5083855;28;20048;-76
2022/08/16 06:12:58;;;;;;;21.27;14.23;;;;;;;22.94;77.80;100298.41;5084840;28;20048;-76
2022/08/16 06:15:26;;;;;;;16.70;13.77;;;;;;;22.94;78.43;100300.22;5085802;28;20040;-76
2022/08/16 06:17:53;;;;;;;17.85;13.65;;;;;;;23.24;77.94;100297.63;5083508;28;20453;-76
2022/08/16 06:20:22;;;;;;;18.33;14.15;;;;;;;23.15;77.69;100305.88;5084861;28;20070;-77
2022/08/16 06:22:49;;;;;;;20.27;14.38;;;;;;;23.23;78.93;100304.03;5081195;28;20105;-76
2022/08/16 06:25:16;;;;;;;18.50;13.63;;;;;;;23.24;76.75;100302.19;5064343;28;20458;-76
2022/08/16 06:27:43;;;;;;;23.70;13.30;;;;;;;23.50;78.05;100301.97;5080626;28;20711;-76
2022/08/16 06:30:15;;;;;;;18.83;13.55;;;;;;;23.96;75.54;100303.75;5083259;27;20040;-76
2022/08/16 06:32:43;;;;;;;;;;;;;;;24.53;73.79;100306.09;5078813;27;20075;-76
2022/08/16 06:35:10;;;;;;;17.02;13.40;;;;;;;25.19;71.06;100299.97;5079298;27;19923;-77
2022/08/16 06:37:39;;;;;;;18.38;12.43;;;;;;;25.38;69.99;100303.97;5085315;27;20047;-76
2022/08/16 06:40:07;;;;;;;16.10;13.13;;;;;;;26.28;65.97;100299.97;5084089;28;20044;-76
2022/08/16 06:42:33;;;;;;;17.45;12.00;;;;;;;26.61;65.35;100303.81;5083718;28;20051;-76
2022/08/16 06:45:00;;;;;;;18.90;12.32;;;;;;;26.28;66.51;100305.34;5085218;28;20047;-76
2022/08/16 06:47:26;;;;;;;16.13;12.48;;;;;;;25.93;67.23;100307.00;5084154;28;20036;-76
2022/08/16 06:49:54;;;;;;;17.38;12.90;;;;;;;26.72;64.83;100305.13;5085351;28;20044;-77
2022/08/16 06:52:21;;;;;;;17.25;11.73;;;;;;;27.06;65.59;100312.47;5082691;28;20690;-76
2022/08/16 06:54:48;;;;;;;18.33;11.63;;;;;;;26.39;66.95;100309.38;5073675;28;20040;-76
2022/08/16 06:57:16;;;;;;;14.80;11.57;;;;;;;27.03;64.70;100315.56;5088331;28;20051;-76
2022/08/16 06:59:42;;;;;;;13.60;11.23;;;;;;;26.57;65.92;100313.28;5082892;28;20043;-76
2022/08/16 07:02:09;;;;;;;12.63;10.10;;;;;;;26.08;66.41;100326.59;5088059;28;20090;-77
2022/08/16 07:04:35;;;;;;;15.77;11.15;;;;;;;27.10;64.56;100321.81;5089460;28;20044;-78
2022/08/16 07:07:04;;;;;;;12.73;10.65;;;;;;;27.82;62.09;100322.28;5088080;28;20730;-77
2022/08/16 07:09:31;;;;;;;16.88;10.55;;;;;;;28.29;58.06;100332.22;5083377;28;20040;-77
2022/08/16 07:11:57;;;;;;;22.33;10.13;;;;;;;29.08;57.13;100328.78;5087968;28;20077;-77
2022/08/16 07:14:23;;;;;;;12.82;9.65;;;;;;;29.44;55.90;100324.59;5071899;28;20120;-77
2022/08/16 07:16:50;;;;;;;12.95;9.68;;;;;;;29.64;54.18;100340.75;5077972;27;20048;-77
2022/08/16 07:19:16;;;;;;;15.40;9.30;;;;;;;30.35;53.95;100337.97;5083737;27;20401;-77
2022/08/16 07:21:43;;;;;;;11.90;9.43;;;;;;;30.65;52.21;100340.91;5086431;27;20446;-77
2022/08/16 07:24:12;;;;;;;11.10;8.73;;;;;;;31.11;50.70;100349.53;5067228;28;20526;-77
2022/08/16 07:26:39;;;;;;;13.05;8.07;;;;;;;30.69;48.06;100342.13;5085178;28;20105;-78
2022/08/16 07:29:06;;;;;;;10.60;7.30;;;;;;;30.95;47.53;100350.06;5086362;28;20044;-77
2022/08/16 07:31:33;;;;;;;10.57;7.25;;;;;;;31.52;45.87;100348.09;5065656;28;20611;-76
2022/08/16 07:33:59;;;;;;;11.80;7.43;;;;;;;31.46;44.97;100346.28;5059409;28;20527;-76
2022/08/16 07:36:26;;;;;;;8.23;6.30;;;;;;;31.51;45.91;100354.56;5098150;27;20466;-76
2022/08/16 07:38:52;;;;;;;11.77;7.10;;;;;;;31.05;48.14;100344.16;5071349;27;20059;-76
2022/08/16 07:41:21;;;;;;;9.55;6.68;;;;;;;31.20;43.70;100350.06;5074775;28;20053;-77
2022/08/16 07:43:47;;;;;;;13.27;7.50;;;;;;;31.70;43.14;100354.38;5073548;28;20134;-76
2022/08/16 07:46:14;;;;;;;8.82;7.40;;;;;;;31.24;45.76;100348.56;5085751;27;20507;-76
2022/08/16 07:48:41;;;;;;;9.23;7.10;;;;;;;31.18;44.55;100355.72;5087210;27;20556;-76
2022/08/16 07:51:07;;;;;;;13.88;7.28;;;;;;;31.25;44.91;100359.19;5085544;27;20044;-76
2022/08/16 07:53:34;;;;;;;11.40;7.30;;;;;;;31.47;46.09;100358.78;5082642;27;20043;-76
2022/08/16 07:56:00;;;;;;;10.85;6.05;;;;;;;31.82;44.44;100366.13;5086946;27;20044;-76
2022/08/16 07:58:29;;;;;;;9.75;6.97;;;;;;;31.68;43.16;100371.91;5084044;28;20055;-77
2022/08/16 08:00:55;;;;;;;12.02;7.07;;;;;;;32.34;40.92;100366.53;5086058;28;20040;-77
2022/08/16 08:03:22;;;;;;;12.93;6.72;;;;;;;31.95;43.44;100369.72;5085890;27;20040;-77
2022/08/16 08:05:48;;;;;;;9.70;6.20;;;;;;;31.49;43.87;100379.16;5086139;27;20598;-77
2022/08/16 08:08:15;;;;;;;9.60;6.97;;;;;;;31.74;42.36;100374.53;5086246;27;20036;-77
2022/08/16 08:10:41;;;;;;;9.70;6.13;;;;;;;31.75;44.44;100372.66;5086423;28;20039;-77
2022/08/16 08:13:08;;;;;;;9.15;6.75;;;;;;;32.00;41.86;100376.16;5081725;28;20044;-77
2022/08/16 08:15:35;;;;;;;9.05;6.35;;;;;;;31.43;45.14;100373.81;5086511;27;20040;-78
2022/08/16 08:18:02;;;;;;;10.02;5.93;;;;;;;31.71;42.42;100377.72;5087059;27;20044;-78
2022/08/16 08:20:29;;;;;;;9.43;6.20;;;;;;;32.57;41.70;100377.47;5083328;27;20040;-77
2022/08/16 08:22:57;;;;;;;7.50;6.10;;;;;;;32.44;39.91;100382.28;5087137;27;20044;-77
2022/08/16 08:25:24;;;;;;;13.27;5.88;;;;;;;32.41;41.39;100386.25;5086644;28;20093;-77
2022/08/16 08:27:50;;;;;;;9.20;5.70;;;;;;;32.91;39.28;100375.09;5084553;28;20047;-77
2022/08/16 08:30:17;;;;;;;27.90;7.45;;;;;;;33.06;39.36;100376.31;5085731;27;20040;-78
2022/08/16 08:32:45;;;;;;;8.82;5.38;;;;;;;32.72;39.46;100377.91;5087556;27;20048;-78
2022/08/16 08:35:11;;;;;;;12.23;5.85;;;;;;;32.70;40.83;100376.50;5085166;27;20407;-78
2022/08/16 08:37:38;;;;;;;6.70;5.70;;;;;;;33.60;38.14;100382.47;5084576;27;20044;-77
2022/08/16 08:40:07;;;;;;;9.05;5.57;;;;;;;32.85;38.48;100378.75;5085564;28;20048;-77
2022/08/16 08:42:34;;;;;;;8.43;5.88;;;;;;;31.69;39.88;100384.41;5084640;28;20066;-77
2022/08/16 08:45:02;;;;;;;13.63;7.25;;;;;;;32.34;37.61;100378.22;5085690;27;20105;-78
2022/08/16 08:47:34;;;;;;;9.90;6.05;;;;;;;32.17;40.50;100381.78;5085324;27;20415;-78
2022/08/16 08:50:03;;;;;;;7.82;5.88;;;;;;;31.84;41.10;100391.13;5076904;27;20044;-78
2022/08/16 08:52:30;;;;;;;7.70;6.22;;;;;;;30.89;41.34;100388.84;5085553;27;20060;-78
2022/08/16 08:54:57;;;;;;;11.88;6.50;;;;;;;31.19;42.33;100380.94;5086987;28;20488;-78
2022/08/16 08:57:24;;;;;;;14.23;6.38;;;;;;;31.76;43.38;100379.75;5086326;28;20441;-78
2022/08/16 08:59:51;;;;;;;12.40;5.85;;;;;;;32.04;43.59;100390.06;5084557;28;20486;-78
2022/08/16 09:02:18;;;;;;;7.05;6.20;;;;;;;33.20;37.43;100382.38;5082559;28;20040;-78
2022/08/16 09:04:46;;;;;;;8.48;5.65;;;;;;;32.86;38.42;100391.25;5086444;28;20051;-77
2022/08/16 09:07:14;;;;;;;9.70;5.80;;;;;;;33.21;42.83;100384.03;5085772;27;20123;-77
2022/08/16 09:09:40;;;;;;;8.15;4.72;;;;;;;33.65;36.59;100388.91;5083460;28;20055;-77
2022/08/16 09:12:07;;;;;;;9.57;5.28;;;;;;;34.09;37.46;100389.28;5086308;28;20097;-78
2022/08/16 09:14:35;;;;;;;10.10;5.30;;;;;;;32.76;36.89;100392.66;5084527;28;20545;-78
2022/08/16 09:17:01;;;;;;;6.18;4.30;;;;;;;31.93;40.31;100401.69;5072257;27;20130;-77
2022/08/16 09:19:28;;;;;;;5.70;5.00;;;;;;;31.69;38.90;100396.09;5096130;27;20053;-78
2022/08/16 09:21:54;;;;;;;5.60;4.25;;;;;;;32.36;38.79;100388.84;5065773;28;20041;-79
2022/08/16 09:24:22;;;;;;;8.00;5.28;;;;;;;31.61;40.45;100385.53;5094750;27;20449;-78
2022/08/16 09:26:48;;;;;;;7.78;4.88;;;;;;;32.46;38.78;100383.69;5078923;28;20581;-78
2022/08/16 09:29:15;;;;;;;6.90;4.30;;;;;;;32.75;39.11;100382.03;5065003;28;20047;-79
2022/08/16 09:31:42;;;;;;;5.85;4.45;;;;;;;33.62;38.56;100377.66;5064028;28;20093;-79
2022/08/16 09:34:08;;;;;;;7.18;4.82;;;;;;;34.25;34.75;100380.38;5065211;28;20044;-77
2022/08/16 09:36:34;;;;;;;7.45;4.85;;;;;;;33.46;36.79;100381.91;5078262;27;20044;-79
2022/08/16 09:39:02;;;;;;;9.10;4.90;;;;;;;33.45;34.55;100385.69;5084012;27;20090;-78
2022/08/16 09:41:30;;;;;;;7.38;4.38;;;;;;;33.34;35.70;100383.78;5086112;28;20044;-78
2022/08/16 09:43:57;;;;;;;5.80;4.57;;;;;;;33.79;35.33;100386.75;5084266;28;20415;-78
2022/08/16 09:46:24;;;;;;;11.32;3.97;;;;;;;34.14;34.44;100384.81;5083478;28;20040;-78
2022/08/16 09:48:53;;;;;;;6.28;3.97;;;;;;;33.11;33.86;100383.78;5083948;28;20075;-78
2022/08/16 09:51:21;;;;;;;5.50;3.70;;;;;;;33.36;35.15;100386.28;5084367;27;20445;-78
2022/08/16 09:53:48;;;;;;;5.25;3.50;;;;;;;33.42;34.21;100385.31;5068459;27;20079;-78
2022/08/16 09:56:24;;;;;;;8.60;4.00;;;;;;;32.82;32.99;100385.47;5078076;28;20051;-78
2022/08/16 09:58:52;;;;;;;6.28;3.53;;;;;;;33.82;35.15;100372.66;5084280;28;20040;-78
2022/08/16 10:01:19;;;;;;;8.20;3.40;;;;;;;33.60;34.54;100379.75;5082660;28;20059;-78
2022/08/16 10:03:45;;;;;;;4.72;3.83;;;;;;;33.56;33.44;100373.97;5085394;28;20048;-78
2022/08/16 10:06:11;;;;;;;5.65;3.55;;;;;;;33.64;33.24;100379.09;5085068;28;20044;-78
2022/08/16 10:08:38;;;;;;;5.28;3.65;;;;;;;32.51;34.79;100383.84;5086621;28;20052;-78
2022/08/16 10:13:48;;;;;;;4.88;3.58;;;;;;;33.36;34.37;100376.25;5083033;28;20051;-78
2022/08/16 10:16:16;;;;;;;4.40;3.60;;;;;;;33.51;34.01;100389.34;5085218;28;20109;-78
2022/08/16 10:18:43;;;;;;;5.35;3.60;;;;;;;33.49;33.12;100378.72;5086042;28;20097;-78
2022/08/16 10:21:09;;;;;;;6.25;3.83;;;;;;;32.73;35.08;100376.84;5085258;28;20044;-77
2022/08/16 10:23:36;;;;;;;8.57;3.63;;;;;;;33.65;34.43;100371.75;5074274;28;20075;-78
2022/08/16 10:26:02;;;;;;;4.82;3.70;;;;;;;33.40;33.91;100368.44;5068003;28;20044;-78
2022/08/16 10:28:30;;;;;;;4.78;3.47;;;;;;;32.34;33.61;100375.50;5087236;28;20051;-78
2022/08/16 10:30:57;;;;;;;6.53;3.65;;;;;;;31.37;34.69;100370.94;5088585;28;20063;-78
2022/08/16 10:33:26;;;;;;;7.80;3.25;;;;;;;32.68;35.80;100373.16;5088705;27;20048;-78
2022/08/16 10:35:52;;;;;;;5.47;3.30;;;;;;;33.74;33.12;100371.13;5087602;27;20055;-78
2022/08/16 10:38:19;;;;;;;10.65;3.70;;;;;;;34.22;32.10;100370.00;5088380;27;20046;-78
2022/08/16 10:40:45;;;;;;;5.95;3.15;;;;;;;34.14;31.71;100373.09;5089472;28;20082;-77
2022/08/16 10:43:12;;;;;;;4.18;3.10;;;;;;;34.49;30.97;100375.66;5087974;28;20044;-78
2022/08/16 10:45:39;;;;;;;4.13;3.17;;;;;;;34.15;28.75;100372.84;5087762;27;20811;-78
2022/08/16 10:48:11;;;;;;;5.10;2.97;;;;;;;34.64;30.35;100371.34;5088392;28;20135;-78
2022/08/16 10:50:38;;;;;;;;;;;;;;;34.03;30.98;100373.94;5087902;28;20051;-78
2022/08/16 10:53:06;;;;;;;6.32;3.67;;;;;;;33.08;32.92;100385.03;5086987;27;19929;-78
2022/08/16 10:55:35;;;;;;;5.47;3.38;;;;;;;33.18;34.24;100384.50;5089106;28;20043;-77
2022/08/16 10:58:03;;;;;;;6.88;3.17;;;;;;;33.89;31.80;100386.94;5086994;28;20392;-78
2022/08/16 11:00:31;;;;;;;5.28;3.03;;;;;;;34.30;32.63;100376.91;5086892;28;20066;-78
2022/08/16 11:03:00;;;;;;;6.60;3.22;;;;;;;33.53;31.91;100381.78;5089009;28;20128;-77
2022/08/16 11:05:27;;;;;;;6.85;3.25;;;;;;;33.68;30.94;100382.97;5089845;28;20127;-77
2022/08/16 11:07:55;;;;;;;8.18;3.65;;;;;;;34.14;31.15;100384.81;5086076;28;20055;-77
2022/08/16 11:10:24;;;;;;;5.55;2.97;;;;;;;34.03;30.47;100384.81;5085169;27;20113;-77
2022/08/16 11:12:51;;;;;;;5.13;3.00;;;;;;;34.56;29.09;100384.50;5087116;28;20547;-78
2022/08/16 11:15:18;;;;;;;5.85;3.15;;;;;;;34.66;29.01;100376.56;5086709;28;20384;-77
2022/08/16 11:17:46;;;;;;;6.90;3.30;;;;;;;35.17;32.29;100381.81;5087110;28;20048;-77